Time;durP1;ratioP1;P1;durP2;ratioP2;P2;SDS_P1;SDS_P2;PMS_P1;PMS_P2;Temp;Humidity;BMP_temperature;BMP_pressure;BME280_temperature;BME280_humidity;BME280_pressure;Samples;Min_cycle;Max_cycle;Signal;HPM_P1;HPM_P2
2020/12/21 00:01:25;;;;;;;95.63;25.45;;;7.50;99.90;;;;;;5030713;28;20031;-58
2020/12/21 00:03:51;;;;;;;83.13;25.40;;;7.50;99.90;;;;;;5030588;28;20026;-55
2020/12/21 00:06:16;;;;;;;97.68;27.20;;;7.40;99.90;;;;;;5015862;28;20474;-55
2020/12/21 00:08:42;;;;;;;130.15;28.33;;;7.50;99.90;;;;;;5034210;28;20033;-52
2020/12/21 00:11:08;;;;;;;167.77;28.88;;;7.70;99.90;;;;;;5033609;28;20030;-52
2020/12/21 00:13:42;;;;;;;116.45;26.35;;;7.60;99.90;;;;;;5033725;28;20032;-51
2020/12/21 00:16:09;;;;;;;45.53;23.25;;;7.60;99.90;;;;;;5015725;28;20037;-53
2020/12/21 00:18:34;;;;;;;113.93;24.92;;;7.60;99.90;;;;;;5033457;28;20116;-51
2020/12/21 00:21:00;;;;;;;125.20;25.75;;;7.50;99.90;;;;;;5033311;28;20113;-52
2020/12/21 00:23:25;;;;;;;117.28;24.77;;;7.50;99.90;;;;;;5033465;28;20053;-55
2020/12/21 00:25:51;;;;;;;133.40;24.20;;;7.60;99.90;;;;;;5015417;28;20437;-52
2020/12/21 00:28:16;;;;;;;61.75;23.08;;;7.70;99.90;;;;;;5033609;28;20104;-51
2020/12/21 00:30:42;;;;;;;80.50;25.23;;;7.70;99.90;;;;;;5015380;28;20025;-55
2020/12/21 00:33:07;;;;;;;68.03;24.30;;;7.60;99.90;;;;;;5032981;28;20719;-55
2020/12/21 00:35:33;;;;;;;154.77;26.98;;;7.60;99.90;;;;;;5015743;28;20049;-54
2020/12/21 00:37:59;;;;;;;146.20;26.13;;;7.50;99.90;;;;;;5015301;28;20021;-55
2020/12/21 00:40:26;;;;;;;94.95;25.33;;;7.50;99.90;;;;;;5033129;28;20017;-53
2020/12/21 00:42:51;;;;;;;110.03;26.25;;;7.40;99.90;;;;;;5033044;28;20149;-53
2020/12/21 00:45:17;;;;;;;165.40;26.38;;;7.40;99.90;;;;;;5033100;28;20122;-57
2020/12/21 00:47:44;;;;;;;84.53;26.38;;;7.50;99.90;;;;;;5032597;28;20027;-57
2020/12/21 00:50:09;;;;;;;71.35;24.88;;;7.40;99.90;;;;;;5015683;28;20055;-55
2020/12/21 00:52:35;;;;;;;180.40;26.90;;;7.40;99.90;;;;;;5032806;28;20025;-57
2020/12/21 00:55:00;;;;;;;124.47;26.27;;;7.40;99.90;;;;;;5032915;28;20108;-58
2020/12/21 00:57:31;;;;;;;164.60;28.92;;;7.40;99.90;;;;;;5033213;28;20044;-57
2020/12/21 00:59:57;;;;;;;135.02;28.58;;;7.40;99.90;;;;;;5032585;28;20131;-55
2020/12/21 01:02:22;;;;;;;68.75;26.92;;;7.40;99.90;;;;;;5032581;28;20029;-52
2020/12/21 01:04:48;;;;;;;200.60;30.10;;;7.40;99.90;;;;;;5032819;28;20021;-57
2020/12/21 01:07:13;;;;;;;118.88;28.05;;;7.30;99.90;;;;;;5032730;28;20033;-55
2020/12/21 01:09:39;;;;;;;162.10;30.35;;;7.30;99.90;;;;;;5032796;28;20056;-55
2020/12/21 01:12:04;;;;;;;173.02;32.53;;;7.30;99.90;;;;;;5032494;28;20068;-55
2020/12/21 01:14:29;;;;;;;129.77;33.13;;;7.30;99.90;;;;;;5032629;28;20081;-52
2020/12/21 01:16:55;;;;;;;107.78;30.30;;;7.30;99.90;;;;;;5031371;28;20033;-53
2020/12/21 01:19:20;;;;;;;111.57;29.95;;;7.30;99.90;;;;;;5032640;28;20021;-56
2020/12/21 01:21:46;;;;;;;145.38;34.42;;;7.30;99.90;;;;;;5032198;28;20022;-51
2020/12/21 01:24:12;;;;;;;177.82;35.10;;;7.40;99.90;;;;;;5032772;28;20030;-57
2020/12/21 01:26:37;;;;;;;167.30;36.22;;;7.30;99.90;;;;;;5032407;28;20112;-55
2020/12/21 01:29:03;;;;;;;189.13;36.97;;;7.30;99.90;;;;;;5033931;28;20048;-58
2020/12/21 01:31:28;;;;;;;85.93;33.88;;;7.30;99.90;;;;;;5036341;28;20030;-54
2020/12/21 01:33:54;;;;;;;140.27;33.70;;;7.30;99.90;;;;;;5032515;28;20022;-55
2020/12/21 01:36:22;;;;;;;83.90;34.83;;;7.30;99.90;;;;;;5014481;28;20052;-53
2020/12/21 01:38:48;;;;;;;105.72;37.67;;;7.30;99.90;;;;;;5032315;28;20025;-54
2020/12/21 01:41:13;;;;;;;166.77;37.67;;;7.40;99.90;;;;;;5032118;28;20049;-58
2020/12/21 01:43:39;;;;;;;166.13;36.40;;;7.50;99.90;;;;;;5032218;28;20025;-54
2020/12/21 01:46:10;;;;;;;179.73;35.65;;;7.50;99.90;;;;;;5032192;28;20064;-54
2020/12/21 01:48:37;;;;;;;181.25;38.25;;;7.50;99.90;;;;;;5031979;28;20025;-56
2020/12/21 01:51:05;;;;;;;196.10;37.83;;;7.40;99.90;;;;;;5031820;28;20076;-56
2020/12/21 01:53:32;;;;;;;175.50;37.50;;;7.40;99.90;;;;;;5031863;28;20509;-58
2020/12/21 01:56:02;;;;;;;234.93;38.75;;;7.40;99.90;;;;;;5031911;28;20406;-53
2020/12/21 01:58:28;;;;;;;195.52;37.42;;;7.30;99.90;;;;;;5031676;28;20128;-59
2020/12/21 02:00:54;;;;;;;190.10;37.65;;;7.30;99.90;;;;;;5031765;28;20109;-57
2020/12/21 02:03:19;;;;;;;166.57;37.53;;;7.40;99.90;;;;;;5031673;28;20036;-59
2020/12/21 02:08:18;;;;;;;135.02;36.13;;;7.30;99.90;;;;;;5070584;28;20053;-45
2020/12/21 02:10:44;;;;;;;151.30;39.45;;;7.20;99.90;;;;;;5073333;28;20017;-54
2020/12/21 02:13:09;;;;;;;157.77;36.55;;;7.30;99.90;;;;;;5071288;28;20017;-56
2020/12/21 02:15:35;;;;;;;197.63;39.28;;;7.20;99.90;;;;;;5071542;28;20096;-56
2020/12/21 02:18:00;;;;;;;208.48;39.08;;;7.30;99.90;;;;;;5070325;28;20033;-51
2020/12/21 02:20:28;;;;;;;144.55;40.67;;;7.30;99.90;;;;;;5071856;28;20470;-54
2020/12/21 02:22:54;;;;;;;157.73;39.83;;;7.30;99.90;;;;;;5070836;28;20514;-56
2020/12/21 02:25:20;;;;;;;109.18;39.17;;;7.30;99.90;;;;;;5071585;28;20032;-53
2020/12/21 02:27:45;;;;;;;93.93;36.20;;;7.30;99.90;;;;;;5070996;28;20072;-57
2020/12/21 02:30:11;;;;;;;118.95;35.25;;;7.30;99.90;;;;;;5071481;28;20070;-52
2020/12/21 02:32:37;;;;;;;108.38;33.00;;;7.50;99.90;;;;;;5070798;28;20126;-54
2020/12/21 02:35:03;;;;;;;85.53;30.60;;;7.50;99.90;;;;;;5071437;28;20090;-53
2020/12/21 02:37:28;;;;;;;168.32;30.40;;;7.50;99.90;;;;;;5070044;28;20028;-53
2020/12/21 02:39:54;;;;;;;82.60;30.35;;;7.60;99.90;;;;;;5071292;28;20119;-51
2020/12/21 02:42:19;;;;;;;98.20;27.42;;;7.50;99.90;;;;;;5070604;28;20094;-53
2020/12/21 02:44:45;;;;;;;71.78;27.73;;;7.60;99.90;;;;;;5071113;28;20070;-51
2020/12/21 02:47:10;;;;;;;71.13;27.38;;;7.60;99.90;;;;;;5069257;28;20031;-56
2020/12/21 02:49:35;;;;;;;51.78;24.48;;;7.50;99.90;;;;;;5070944;28;20059;-54
2020/12/21 02:52:01;;;;;;;49.85;25.23;;;7.50;99.90;;;;;;5070212;28;20025;-54
2020/12/21 02:54:26;;;;;;;83.63;23.38;;;7.50;99.90;;;;;;5070842;28;20036;-55
2020/12/21 02:56:55;;;;;;;65.95;23.10;;;7.40;99.90;;;;;;5070775;28;20040;-53
2020/12/21 02:59:21;;;;;;;94.30;22.58;;;7.50;99.90;;;;;;5070891;28;20039;-57
2020/12/21 03:01:47;;;;;;;65.45;22.15;;;7.60;99.90;;;;;;5070149;28;20025;-53
2020/12/21 03:04:12;;;;;;;60.88;22.00;;;7.60;99.90;;;;;;5070817;28;20061;-54
2020/12/21 03:06:38;;;;;;;63.92;20.33;;;7.60;99.90;;;;;;5070703;28;20119;-53
2020/12/21 03:09:04;;;;;;;60.83;23.52;;;7.60;99.90;;;;;;5070820;28;20070;-54
2020/12/21 03:11:30;;;;;;;70.85;24.20;;;7.60;99.90;;;;;;5069954;28;20035;-52
2020/12/21 03:13:56;;;;;;;66.65;23.02;;;7.60;99.90;;;;;;5070923;28;20024;-55
2020/12/21 03:16:23;;;;;;;51.55;22.38;;;7.60;99.90;;;;;;5070506;28;20078;-54
2020/12/21 03:18:49;;;;;;;61.25;22.45;;;7.50;99.90;;;;;;5070433;28;20052;-56
2020/12/21 03:21:15;;;;;;;50.38;21.67;;;7.50;99.90;;;;;;5069852;28;20381;-49
2020/12/21 03:23:40;;;;;;;58.03;23.05;;;7.50;99.90;;;;;;5070677;28;20104;-53
2020/12/21 03:26:07;;;;;;;50.40;23.50;;;7.60;99.90;;;;;;5070151;28;20393;-52
2020/12/21 03:28:32;;;;;;;58.72;23.75;;;7.60;99.90;;;;;;5070346;28;20028;-54
2020/12/21 03:30:58;;;;;;;48.88;23.98;;;7.60;99.90;;;;;;5069848;28;20032;-52
2020/12/21 03:33:23;;;;;;;47.97;22.98;;;7.70;99.90;;;;;;5070441;28;20107;-55
2020/12/21 03:35:49;;;;;;;84.72;23.00;;;7.60;99.90;;;;;;5052366;28;20040;-52
2020/12/21 03:38:14;;;;;;;86.85;24.65;;;7.60;99.90;;;;;;5070251;28;20028;-54
2020/12/21 03:40:40;;;;;;;99.40;25.70;;;7.60;99.90;;;;;;5072782;28;20426;-50
2020/12/21 03:43:06;;;;;;;120.40;25.27;;;7.60;99.90;;;;;;5073647;28;20028;-50
2020/12/21 03:45:31;;;;;;;63.42;22.67;;;7.60;99.90;;;;;;5074390;28;20393;-51
2020/12/21 03:47:57;;;;;;;89.07;24.08;;;7.70;99.90;;;;;;5073991;28;20031;-52
2020/12/21 03:50:22;;;;;;;43.45;22.55;;;7.70;99.90;;;;;;5073989;28;20512;-58
2020/12/21 03:52:48;;;;;;;104.15;24.20;;;7.70;99.90;;;;;;5073410;28;20029;-57
2020/12/21 03:55:13;;;;;;;113.25;23.33;;;7.60;99.90;;;;;;5074034;28;20543;-52
2020/12/21 03:57:39;;;;;;;87.57;24.02;;;7.50;99.90;;;;;;5057184;28;20051;-51
2020/12/21 04:00:06;;;;;;;115.10;26.65;;;7.50;99.90;;;;;;5057823;28;20048;-53
2020/12/21 04:02:33;;;;;;;102.78;24.35;;;7.60;99.90;;;;;;5074418;28;20028;-52
2020/12/21 04:05:03;;;;;;;56.60;23.77;;;7.50;99.90;;;;;;5076396;28;20548;-53
2020/12/21 04:07:29;;;;;;;116.45;27.95;;;7.40;99.90;;;;;;5074786;28;20037;-53
2020/12/21 04:09:54;;;;;;;52.83;24.52;;;7.30;99.90;;;;;;5074837;28;20021;-53
2020/12/21 04:12:20;;;;;;;100.72;25.33;;;7.30;99.90;;;;;;5073081;28;20054;-54
2020/12/21 04:14:45;;;;;;;67.10;26.50;;;7.40;99.90;;;;;;5073751;28;20032;-52
2020/12/21 04:17:11;;;;;;;59.83;26.33;;;7.30;99.90;;;;;;5071703;28;20055;-55
2020/12/21 04:19:37;;;;;;;57.60;25.17;;;7.30;99.90;;;;;;5073503;28;20016;-51
2020/12/21 04:22:03;;;;;;;59.70;25.42;;;7.20;99.90;;;;;;5073196;28;20104;-52
2020/12/21 04:24:28;;;;;;;59.33;27.63;;;7.20;99.90;;;;;;5073319;28;20025;-54
2020/12/21 04:26:54;;;;;;;58.03;25.27;;;7.20;99.90;;;;;;5073642;28;20028;-57
2020/12/21 04:29:19;;;;;;;57.28;26.95;;;7.10;99.90;;;;;;5073215;28;20385;-56
2020/12/21 04:31:45;;;;;;;60.33;27.10;;;7.20;99.90;;;;;;5054523;28;20031;-54
2020/12/21 04:34:10;;;;;;;68.45;26.02;;;7.20;99.90;;;;;;5055366;28;20024;-56
2020/12/21 04:36:36;;;;;;;52.15;24.10;;;7.20;99.90;;;;;;5073142;28;20591;-52
2020/12/21 04:39:02;;;;;;;52.85;25.10;;;7.10;99.90;;;;;;5073079;28;20566;-52
2020/12/21 04:41:28;;;;;;;46.10;23.00;;;7.00;99.90;;;;;;5072683;28;20177;-52
2020/12/21 04:43:56;;;;;;;52.55;25.25;;;7.00;99.90;;;;;;5073253;28;20139;-56
2020/12/21 04:46:21;;;;;;;49.67;26.17;;;7.00;99.90;;;;;;5072172;28;20062;-54
2020/12/21 04:48:49;;;;;;;48.40;22.83;;;7.10;99.90;;;;;;5073082;28;20036;-48
2020/12/21 04:51:16;;;;;;;63.10;24.00;;;7.20;99.90;;;;;;5072199;28;20016;-50
2020/12/21 04:53:43;;;;;;;125.95;24.60;;;7.40;99.90;;;;;;5054825;28;20043;-54
2020/12/21 04:56:09;;;;;;;102.10;25.67;;;7.40;99.90;;;;;;5072886;28;20025;-51
2020/12/21 04:58:35;;;;;;;67.50;25.40;;;7.20;99.90;;;;;;5072773;28;20055;-49
2020/12/21 05:01:00;;;;;;;77.95;24.35;;;7.10;99.90;;;;;;5072081;28;20676;-48
2020/12/21 05:03:26;;;;;;;64.78;25.48;;;7.10;99.90;;;;;;5072943;28;20036;-56
2020/12/21 05:05:52;;;;;;;46.78;24.90;;;7.00;99.90;;;;;;5054599;28;20021;-53
2020/12/21 05:08:20;;;;;;;57.95;24.83;;;7.00;99.90;;;;;;5072516;28;20063;-52
2020/12/21 05:10:58;;;;;;;43.90;25.02;;;7.00;99.90;;;;;;5072549;28;20021;-53
2020/12/21 05:13:25;;;;;;;43.22;23.77;;;7.10;99.90;;;;;;5072469;28;20093;-56
2020/12/21 05:15:52;;;;;;;46.40;23.50;;;7.10;99.90;;;;;;5072324;28;20031;-56
2020/12/21 05:18:26;;;;;;;40.50;23.70;;;7.10;99.90;;;;;;5072234;28;20478;-53
2020/12/21 05:21:02;;;;;;;44.08;23.42;;;7.20;99.90;;;;;;5072278;28;20043;-54
2020/12/21 05:23:27;;;;;;;41.42;23.00;;;7.20;99.90;;;;;;5072114;28;20108;-54
2020/12/21 05:26:01;;;;;;;56.88;24.35;;;7.30;99.90;;;;;;5071988;28;20102;-56
2020/12/21 05:28:28;;;;;;;48.42;24.73;;;7.20;99.90;;;;;;5072254;28;20409;-56
2020/12/21 05:30:59;;;;;;;46.10;24.65;;;7.30;99.90;;;;;;5072020;28;20036;-58
2020/12/21 05:33:26;;;;;;;55.35;24.70;;;7.20;99.90;;;;;;5072023;28;20032;-54
2020/12/21 05:35:54;;;;;;;46.55;24.00;;;7.40;99.90;;;;;;5071873;28;20374;-56
2020/12/21 05:38:28;;;;;;;44.40;24.65;;;7.30;99.90;;;;;;5071906;28;20024;-54
2020/12/21 05:41:05;;;;;;;58.03;22.17;;;7.20;99.90;;;;;;5071977;28;20028;-54
2020/12/21 05:43:31;;;;;;;47.28;24.10;;;7.20;99.90;;;;;;5071711;28;20020;-54
2020/12/21 05:46:07;;;;;;;46.33;23.77;;;7.30;99.90;;;;;;5071744;28;20031;-52
2020/12/21 05:48:37;;;;;;;;;;;7.30;99.90;;;;;;5072269;28;20048;-52
2020/12/21 05:51:05;;;;;;;47.97;24.05;;;7.30;99.90;;;;;;5071365;28;20454;-47
2020/12/21 05:53:43;;;;;;;45.97;21.95;;;7.30;99.90;;;;;;5071845;28;20028;-54
2020/12/21 05:56:10;;;;;;;50.85;25.10;;;7.40;99.90;;;;;;5071832;28;20043;-55
2020/12/21 05:58:38;;;;;;;46.40;23.83;;;7.50;99.90;;;;;;5071591;28;20024;-58
2020/12/21 06:01:10;;;;;;;43.97;22.88;;;7.40;99.90;;;;;;5070897;28;20066;-54
2020/12/21 06:03:41;;;;;;;45.72;24.98;;;7.30;99.90;;;;;;5071522;28;20029;-56
2020/12/21 06:06:13;;;;;;;42.58;23.65;;;7.20;99.90;;;;;;5071357;28;20030;-50
2020/12/21 06:08:40;;;;;;;54.05;22.88;;;7.20;99.90;;;;;;5071383;28;20108;-53
2020/12/21 06:11:34;;;;;;;61.25;23.67;;;7.20;99.90;;;;;;5070703;28;20033;-53
2020/12/21 06:14:08;;;;;;;44.00;23.23;;;7.10;99.90;;;;;;5061634;28;20102;-51
2020/12/21 06:16:36;;;;;;;50.05;24.55;;;7.10;99.90;;;;;;5070420;28;20025;-55
2020/12/21 06:19:07;;;;;;;49.42;24.98;;;7.10;99.90;;;;;;5071118;28;20052;-52
2020/12/21 06:21:35;;;;;;;43.97;24.88;;;7.10;99.90;;;;;;5070625;28;20024;-54
2020/12/21 06:24:01;;;;;;;64.15;24.30;;;7.10;99.90;;;;;;5071150;28;20474;-53
2020/12/21 06:26:32;;;;;;;51.95;23.92;;;7.20;99.90;;;;;;5053191;28;20032;-56
2020/12/21 06:28:59;;;;;;;86.88;25.88;;;7.20;99.90;;;;;;5071247;28;20021;-50
2020/12/21 06:31:35;;;;;;;92.30;24.75;;;7.10;99.90;;;;;;5070629;28;20123;-53
2020/12/21 06:34:00;;;;;;;97.35;26.98;;;7.10;99.90;;;;;;5071251;28;20035;-53
2020/12/21 06:36:33;;;;;;;42.95;24.50;;;7.10;99.90;;;;;;5071113;28;20405;-52
2020/12/21 06:38:59;;;;;;;52.38;24.08;;;7.10;99.90;;;;;;5071398;28;20032;-52
2020/12/21 06:41:27;;;;;;;43.40;24.92;;;7.10;99.90;;;;;;5070801;28;20024;-52
2020/12/21 06:43:56;;;;;;;60.58;26.13;;;7.00;99.90;;;;;;5071413;28;20052;-59
2020/12/21 06:46:23;;;;;;;44.10;24.40;;;7.20;99.90;;;;;;5051944;28;20184;-55
2020/12/21 06:49:05;;;;;;;43.30;23.90;;;7.10;99.90;;;;;;5070820;28;20028;-48
2020/12/21 06:51:31;;;;;;;38.58;23.65;;;7.10;99.90;;;;;;5070220;28;20039;-55
2020/12/21 06:54:01;;;;;;;39.67;21.13;;;7.10;99.90;;;;;;5070560;28;20024;-54
2020/12/21 06:56:27;;;;;;;79.88;19.92;;;7.10;99.90;;;;;;5070622;28;20290;-53
2020/12/21 06:58:53;;;;;;;37.85;22.48;;;7.20;99.90;;;;;;5070786;28;20032;-50
2020/12/21 07:01:21;;;;;;;40.40;21.60;;;7.10;99.90;;;;;;5069391;28;20035;-55
2020/12/21 07:03:47;;;;;;;77.25;21.17;;;7.20;99.90;;;;;;5059373;28;20031;-46
2020/12/21 07:06:13;;;;;;;71.60;21.08;;;7.10;99.90;;;;;;5055186;28;20698;-49
2020/12/21 07:08:38;;;;;;;59.45;21.38;;;7.00;99.90;;;;;;5055100;28;20096;-46
2020/12/21 07:11:04;;;;;;;69.88;19.00;;;7.00;99.90;;;;;;5056175;28;20165;-57
2020/12/21 07:13:33;;;;;;;44.45;18.70;;;7.00;99.90;;;;;;5069867;28;20036;-56
2020/12/21 07:16:00;;;;;;;74.75;19.23;;;7.00;99.90;;;;;;5068832;28;20035;-57
2020/12/21 07:18:26;;;;;;;52.40;18.95;;;7.00;99.90;;;;;;5068603;28;20024;-55
2020/12/21 07:20:53;;;;;;;67.20;18.95;;;7.00;99.90;;;;;;5070304;28;20027;-56
2020/12/21 07:23:19;;;;;;;51.88;16.65;;;6.80;99.90;;;;;;5042877;28;20017;-55
2020/12/21 07:25:51;;;;;;;33.25;17.63;;;6.80;99.90;;;;;;5050190;28;20017;-52
2020/12/21 07:28:24;;;;;;;31.55;17.88;;;6.70;99.90;;;;;;5051542;28;20494;-55
2020/12/21 07:30:50;;;;;;;31.42;17.95;;;6.70;99.90;;;;;;5047572;28;20078;-57
2020/12/21 07:33:16;;;;;;;30.42;17.98;;;6.70;99.90;;;;;;5055624;28;20077;-54
2020/12/21 07:35:42;;;;;;;28.40;16.02;;;6.70;99.90;;;;;;5070346;28;20671;-52
2020/12/21 07:38:09;;;;;;;28.02;16.05;;;6.70;99.90;;;;;;5044448;28;20040;-60
2020/12/21 07:40:35;;;;;;;23.45;15.13;;;6.70;99.90;;;;;;5052549;28;20436;-51
2020/12/21 07:43:03;;;;;;;44.78;15.35;;;6.80;99.90;;;;;;5032254;28;20075;-51
2020/12/21 07:45:29;;;;;;;25.85;14.98;;;6.80;99.90;;;;;;5033187;28;20026;-51
2020/12/21 07:47:55;;;;;;;28.98;16.33;;;6.80;99.90;;;;;;5061527;28;20040;-54
2020/12/21 07:50:21;;;;;;;23.70;14.77;;;6.80;99.90;;;;;;5032732;28;20021;-51
2020/12/21 07:52:47;;;;;;;30.33;15.80;;;6.80;99.90;;;;;;5055826;28;20119;-55
2020/12/21 07:55:13;;;;;;;30.52;15.75;;;6.80;99.90;;;;;;5070535;28;20489;-54
2020/12/21 07:57:38;;;;;;;28.83;16.60;;;6.80;99.90;;;;;;5057627;28;20033;-50
2020/12/21 08:00:05;;;;;;;56.60;17.65;;;6.80;99.90;;;;;;5050214;28;20387;-52
2020/12/21 08:02:32;;;;;;;27.42;17.02;;;6.80;99.90;;;;;;5067674;28;20071;-50
2020/12/21 08:04:58;;;;;;;36.65;18.90;;;6.80;99.90;;;;;;5032100;28;20068;-53
2020/12/21 08:07:28;;;;;;;33.13;18.45;;;6.80;99.90;;;;;;5073913;22;20464;-54
2020/12/21 08:09:54;;;;;;;33.38;17.58;;;6.80;99.90;;;;;;5063305;28;20493;-55
2020/12/21 08:12:20;;;;;;;26.92;17.60;;;6.80;99.90;;;;;;5033425;28;20025;-58
2020/12/21 08:14:46;;;;;;;35.95;21.02;;;6.90;99.90;;;;;;5052224;28;20035;-57
2020/12/21 08:17:17;;;;;;;34.30;18.77;;;6.80;99.90;;;;;;5060464;28;20033;-57
2020/12/21 08:19:55;;;;;;;43.88;21.38;;;6.80;99.90;;;;;;5060462;28;20020;-51
2020/12/21 08:22:22;;;;;;;34.85;19.80;;;6.80;99.90;;;;;;5043431;28;20371;-57
2020/12/21 08:25:13;;;;;;;39.45;23.30;;;6.70;99.90;;;;;;5049758;28;20029;-53
2020/12/21 08:27:42;;;;;;;36.75;22.10;;;6.70;99.90;;;;;;5061010;28;20025;-54
2020/12/21 08:30:16;;;;;;;42.92;23.52;;;6.70;99.90;;;;;;5070204;28;20032;-53
2020/12/21 08:32:42;;;;;;;42.15;25.40;;;6.60;99.90;;;;;;5058441;28;20048;-54
2020/12/21 08:35:09;;;;;;;40.28;24.67;;;6.60;99.90;;;;;;5065797;28;20031;-50
2020/12/21 08:37:35;;;;;;;36.42;23.50;;;6.60;99.90;;;;;;5053022;28;20152;-54
2020/12/21 08:40:14;;;;;;;35.78;22.15;;;6.70;99.90;;;;;;5058340;28;20025;-48
2020/12/21 08:42:40;;;;;;;33.80;22.15;;;6.70;99.90;;;;;;5057541;28;20066;-50
2020/12/21 08:45:08;;;;;;;35.15;21.65;;;6.80;99.90;;;;;;5053827;28;20485;-47
2020/12/21 08:47:34;;;;;;;35.03;21.27;;;6.90;99.90;;;;;;5052745;28;20112;-49
2020/12/21 08:50:02;;;;;;;30.23;20.92;;;7.00;99.90;;;;;;5064340;28;20594;-48
2020/12/21 08:52:27;;;;;;;37.75;22.80;;;7.10;99.90;;;;;;5072419;28;20112;-51
2020/12/21 08:54:53;;;;;;;35.60;22.70;;;7.10;99.90;;;;;;5071543;28;20615;-52
2020/12/21 08:57:18;;;;;;;37.97;22.38;;;7.20;99.90;;;;;;5072367;28;20059;-53
2020/12/21 08:59:44;;;;;;;33.67;21.70;;;7.20;99.90;;;;;;5072504;28;20254;-51
2020/12/21 09:02:10;;;;;;;34.80;21.95;;;7.30;99.90;;;;;;5072272;28;20020;-53
2020/12/21 09:04:35;;;;;;;39.45;23.27;;;7.30;99.90;;;;;;5072621;28;20154;-54
2020/12/21 09:07:01;;;;;;;34.65;22.83;;;7.40;99.90;;;;;;5072462;28;20094;-52
2020/12/21 09:09:26;;;;;;;35.33;23.50;;;7.30;99.90;;;;;;5054674;28;20056;-49
2020/12/21 09:11:53;;;;;;;34.10;22.63;;;7.30;99.90;;;;;;5071618;28;20021;-52
2020/12/21 09:14:24;;;;;;;37.97;23.10;;;7.20;99.90;;;;;;5072463;28;20101;-50
2020/12/21 09:16:49;;;;;;;35.47;24.35;;;7.10;99.90;;;;;;5072275;28;20017;-50
2020/12/21 09:19:15;;;;;;;37.08;24.48;;;7.10;99.90;;;;;;5072264;28;20033;-49
2020/12/21 09:21:41;;;;;;;37.22;24.10;;;7.10;99.90;;;;;;5071689;28;20028;-53
2020/12/21 09:24:07;;;;;;;36.60;23.42;;;7.10;99.90;;;;;;5072216;28;20025;-45
2020/12/21 09:26:32;;;;;;;37.95;23.08;;;7.30;99.90;;;;;;5070207;28;20036;-49
2020/12/21 09:28:58;;;;;;;33.80;23.50;;;7.40;99.90;;;;;;5072470;28;20028;-54
2020/12/21 09:31:24;;;;;;;35.28;24.83;;;7.40;99.90;;;;;;5071553;28;20133;-54
2020/12/21 09:33:51;;;;;;;37.65;23.80;;;7.40;99.90;;;;;;5072424;28;20090;-51
2020/12/21 09:36:17;;;;;;;31.52;21.30;;;7.40;99.90;;;;;;5054345;28;20021;-52
2020/12/21 09:38:44;;;;;;;32.38;22.27;;;7.40;99.90;;;;;;5071155;28;20020;-49
2020/12/21 09:41:16;;;;;;;34.90;24.25;;;7.50;99.90;;;;;;5071945;28;20031;-50
2020/12/21 09:43:43;;;;;;;33.90;24.08;;;7.60;99.90;;;;;;5071139;28;20099;-51
2020/12/21 09:46:09;;;;;;;38.17;23.73;;;7.70;99.90;;;;;;5053656;28;20481;-49
2020/12/21 09:48:36;;;;;;;36.42;24.05;;;7.90;99.90;;;;;;5071403;28;20039;-49
2020/12/21 09:51:01;;;;;;;33.42;22.05;;;7.90;99.90;;;;;;5071521;28;20103;-49
2020/12/21 09:53:26;;;;;;;30.67;21.63;;;7.90;99.90;;;;;;5070666;28;20119;-54
2020/12/21 09:55:52;;;;;;;30.85;23.05;;;8.00;99.90;;;;;;5071102;28;20043;-55
2020/12/21 09:58:18;;;;;;;32.92;22.40;;;8.00;99.90;;;;;;5071111;28;20099;-54
2020/12/21 10:00:43;;;;;;;33.20;22.95;;;8.10;99.90;;;;;;5071331;28;20450;-54
2020/12/21 10:03:09;;;;;;;34.25;25.00;;;8.20;99.90;;;;;;5052614;28;20024;-54
2020/12/21 10:05:34;;;;;;;37.08;26.88;;;8.20;99.90;;;;;;5053465;28;20021;-56
2020/12/21 10:08:00;;;;;;;42.63;26.90;;;8.10;99.90;;;;;;5071150;28;20039;-54
2020/12/21 10:10:25;;;;;;;47.45;27.98;;;8.10;99.90;;;;;;5070979;28;20599;-55
2020/12/21 10:12:51;;;;;;;39.53;26.75;;;8.00;99.90;;;;;;5052358;28;20066;-54
2020/12/21 10:15:17;;;;;;;38.95;27.23;;;7.90;99.90;;;;;;5071056;28;20512;-53
2020/12/21 10:17:42;;;;;;;44.95;28.55;;;8.00;99.90;;;;;;5070929;28;20120;-55
2020/12/21 10:20:08;;;;;;;47.33;29.55;;;8.00;99.90;;;;;;5071049;28;20028;-51
2020/12/21 10:22:33;;;;;;;40.45;25.92;;;7.90;99.90;;;;;;5068112;28;20036;-54
2020/12/21 10:24:59;;;;;;;43.55;27.15;;;7.90;99.90;;;;;;5053894;28;20043;-52
2020/12/21 10:27:24;;;;;;;38.70;26.35;;;7.90;99.90;;;;;;5069985;28;20032;-54
2020/12/21 10:29:50;;;;;;;40.00;26.50;;;8.00;99.90;;;;;;5032828;28;20076;-50
2020/12/21 10:32:16;;;;;;;38.28;26.13;;;8.00;99.90;;;;;;5050195;28;20033;-53
2020/12/21 10:34:41;;;;;;;42.40;26.52;;;8.00;99.90;;;;;;5069355;28;20036;-49
2020/12/21 10:37:07;;;;;;;37.55;25.00;;;8.00;99.90;;;;;;5057015;28;20079;-51
2020/12/21 10:39:32;;;;;;;41.05;26.10;;;8.10;99.90;;;;;;5053505;28;20027;-49
2020/12/21 10:41:58;;;;;;;39.92;26.35;;;8.10;99.90;;;;;;5049885;28;20047;-54
2020/12/21 10:44:23;;;;;;;39.17;26.55;;;8.10;99.90;;;;;;5031674;28;20355;-53
2020/12/21 10:46:49;;;;;;;37.45;23.92;;;8.20;99.90;;;;;;5051740;28;20025;-59
2020/12/21 10:49:15;;;;;;;37.70;25.10;;;8.30;99.90;;;;;;5050345;28;20420;-54
2020/12/21 10:51:40;;;;;;;33.53;23.52;;;8.30;99.90;;;;;;5029989;28;20025;-50
2020/12/21 10:54:06;;;;;;;35.83;22.83;;;8.30;99.90;;;;;;5031640;28;20079;-53
2020/12/21 10:56:31;;;;;;;34.90;23.92;;;8.40;99.90;;;;;;5061440;28;20096;-54
2020/12/21 10:58:57;;;;;;;33.85;21.67;;;8.40;99.90;;;;;;5050211;28;20029;-52
2020/12/21 11:01:23;;;;;;;29.05;20.48;;;8.40;99.90;;;;;;5050361;28;20033;-48
2020/12/21 11:03:48;;;;;;;33.53;20.73;;;8.50;99.90;;;;;;5068501;28;20028;-54
2020/12/21 11:06:24;;;;;;;31.33;20.27;;;8.50;99.90;;;;;;5052332;28;20040;-52
2020/12/21 11:08:50;;;;;;;;;;;8.60;99.90;;;;;;5068903;28;20058;-50
2020/12/21 11:11:23;;;;;;;;;;;8.50;99.90;;;;;;5071114;28;20389;-51
2020/12/21 11:13:48;;;;;;;27.83;18.48;;;8.70;99.90;;;;;;5049669;28;20285;-51
2020/12/21 11:16:14;;;;;;;31.20;19.75;;;8.70;99.90;;;;;;5051632;28;20040;-48
2020/12/21 11:18:39;;;;;;;28.60;18.80;;;8.80;99.90;;;;;;5049979;28;20146;-51
2020/12/21 11:21:05;;;;;;;22.20;17.30;;;8.80;99.90;;;;;;5043097;28;20068;-52
2020/12/21 11:23:30;;;;;;;24.33;16.98;;;8.80;99.90;;;;;;5067706;28;20521;-53
2020/12/21 11:25:56;;;;;;;24.85;17.55;;;8.80;99.90;;;;;;5064022;28;20143;-53
2020/12/21 11:28:21;;;;;;;26.88;16.70;;;8.80;99.90;;;;;;5053354;28;20040;-51
2020/12/21 11:30:48;;;;;;;22.77;15.65;;;9.00;99.90;;;;;;5051007;28;20037;-50
2020/12/21 11:33:13;;;;;;;24.05;16.50;;;9.00;99.90;;;;;;5052131;28;20409;-53
2020/12/21 11:35:38;;;;;;;24.85;17.73;;;9.10;99.90;;;;;;5048629;28;20112;-51
2020/12/21 11:38:04;;;;;;;28.63;17.08;;;9.20;99.90;;;;;;5049847;28;20033;-53
2020/12/21 11:40:30;;;;;;;19.83;14.63;;;9.20;99.90;;;;;;5035838;28;20397;-52
2020/12/21 11:42:55;;;;;;;20.88;15.75;;;9.20;99.90;;;;;;5050192;28;20083;-49
2020/12/21 11:45:20;;;;;;;17.98;14.75;;;9.30;99.90;;;;;;5065686;28;20029;-49
2020/12/21 11:47:46;;;;;;;20.90;14.05;;;9.30;99.90;;;;;;5044917;28;20551;-48
2020/12/21 11:50:11;;;;;;;18.60;13.23;;;9.40;99.90;;;;;;5069945;28;20028;-54
2020/12/21 11:52:38;;;;;;;19.27;13.27;;;9.40;99.90;;;;;;5068052;28;20404;-55
2020/12/21 11:55:04;;;;;;;19.10;12.48;;;9.40;99.90;;;;;;5069756;28;20172;-53
2020/12/21 11:57:30;;;;;;;19.35;12.48;;;9.40;99.90;;;;;;5049949;28;20416;-56
2020/12/21 11:59:56;;;;;;;18.15;10.90;;;9.40;99.90;;;;;;5032417;28;20032;-55
2020/12/21 12:02:21;;;;;;;16.98;11.77;;;9.40;99.90;;;;;;5060988;28;20537;-56
2020/12/21 12:04:47;;;;;;;23.98;13.25;;;9.40;99.90;;;;;;5053037;28;20044;-51
2020/12/21 12:07:13;;;;;;;21.92;14.00;;;9.40;99.90;;;;;;5047550;28;20402;-54
2020/12/21 12:09:39;;;;;;;20.88;14.43;;;9.30;99.90;;;;;;5073371;28;20092;-51
2020/12/21 12:12:04;;;;;;;21.42;14.43;;;9.30;99.90;;;;;;5068751;28;20031;-53
2020/12/21 12:14:30;;;;;;;21.75;13.85;;;9.20;99.90;;;;;;5073380;28;20024;-58
2020/12/21 12:16:57;;;;;;;18.13;13.25;;;9.10;99.90;;;;;;5063726;28;20047;-57
2020/12/21 12:19:23;;;;;;;23.00;15.18;;;9.10;99.90;;;;;;5053424;28;20056;-57
2020/12/21 12:21:49;;;;;;;17.40;14.07;;;9.20;99.90;;;;;;5060188;28;20060;-56
2020/12/21 12:24:15;;;;;;;20.63;13.75;;;9.10;99.90;;;;;;5073247;28;20032;-57
2020/12/21 12:26:42;;;;;;;15.57;12.40;;;9.10;99.90;;;;;;5060300;28;20374;-54
2020/12/21 12:29:07;;;;;;;19.92;12.63;;;9.20;99.90;;;;;;5035430;28;20037;-57
2020/12/21 12:31:33;;;;;;;14.48;9.52;;;9.20;99.90;;;;;;5035748;28;20033;-51
2020/12/21 12:33:58;;;;;;;13.65;9.13;;;9.20;99.90;;;;;;5035048;28;20032;-56
2020/12/21 12:36:26;;;;;;;12.68;8.13;;;9.30;99.90;;;;;;5061716;28;20031;-56